MLA2291 LKMT-EPWR
Flight info
| Callsign | MLA2291 |
|---|---|
| Flight time | N/A |
| Altitude | 8000 |
| Route | REGLI1K REGLI L617 EPOPA EPOPA1P |
| Aircraft | C208/L-V/N |
Departure
| Time | 2026-04-18 20:55 |
|---|---|
| Airport | Leoš Janáček Airport Ostrava (LKMT) |
Arrival
| Time | N/A |
|---|---|
| Airport | Copernicus Wrocław Airport (EPWR) |
| Time | Latitude | Longitude | Altitude | Speed | Heading |
|---|---|---|---|---|---|
| 2026-04-18 20:33 | 49.68408 | 18.09999 | 820 ft | 0 kts | 47° |
| 2026-04-18 20:44 | 49.68412 | 18.10002 | 820 ft | 3 kts | 23° |
| 2026-04-18 20:44 | 49.68436 | 18.09963 | 820 ft | 7 kts | 292° |
| 2026-04-18 20:44 | 49.68479 | 18.09950 | 820 ft | 9 kts | 44° |
| 2026-04-18 20:45 | 49.68529 | 18.10029 | 820 ft | 11 kts | 46° |
| 2026-04-18 20:45 | 49.68589 | 18.10125 | 820 ft | 13 kts | 45° |
| 2026-04-18 20:45 | 49.68658 | 18.10234 | 820 ft | 15 kts | 46° |
| 2026-04-18 20:45 | 49.68734 | 18.10353 | 820 ft | 16 kts | 46° |
| 2026-04-18 20:46 | 49.68813 | 18.10482 | 820 ft | 16 kts | 45° |
| 2026-04-18 20:46 | 49.68892 | 18.10607 | 820 ft | 17 kts | 46° |
| 2026-04-18 20:46 | 49.68973 | 18.10739 | 820 ft | 18 kts | 46° |
| 2026-04-18 20:46 | 49.69060 | 18.10878 | 820 ft | 18 kts | 46° |
| 2026-04-18 20:47 | 49.69143 | 18.11014 | 820 ft | 17 kts | 45° |
| 2026-04-18 20:47 | 49.69220 | 18.11139 | 820 ft | 17 kts | 46° |
| 2026-04-18 20:47 | 49.69303 | 18.11272 | 820 ft | 18 kts | 45° |
| 2026-04-18 20:47 | 49.69390 | 18.11411 | 820 ft | 18 kts | 46° |
| 2026-04-18 20:48 | 49.69476 | 18.11561 | 820 ft | 19 kts | 42° |
| 2026-04-18 20:48 | 49.69569 | 18.11705 | 820 ft | 19 kts | 46° |
| 2026-04-18 20:48 | 49.69652 | 18.11839 | 820 ft | 16 kts | 45° |
| 2026-04-18 20:48 | 49.69732 | 18.11965 | 820 ft | 17 kts | 45° |
| 2026-04-18 20:49 | 49.69814 | 18.12093 | 820 ft | 17 kts | 46° |
| 2026-04-18 20:49 | 49.69897 | 18.12231 | 820 ft | 18 kts | 47° |
| 2026-04-18 20:49 | 49.69985 | 18.12369 | 820 ft | 19 kts | 45° |
| 2026-04-18 20:49 | 49.70077 | 18.12514 | 820 ft | 19 kts | 46° |
| 2026-04-18 20:50 | 49.70165 | 18.12659 | 820 ft | 18 kts | 46° |
| 2026-04-18 20:50 | 49.70248 | 18.12796 | 820 ft | 17 kts | 50° |
| 2026-04-18 20:50 | 49.70325 | 18.12918 | 820 ft | 15 kts | 43° |
| 2026-04-18 20:50 | 49.70394 | 18.13036 | 820 ft | 12 kts | 49° |
| 2026-04-18 20:51 | 49.70448 | 18.13120 | 820 ft | 11 kts | 38° |
| 2026-04-18 20:51 | 49.70491 | 18.13131 | 820 ft | 0 kts | 322° |
| 2026-04-18 20:53 | 49.70495 | 18.13125 | 820 ft | 5 kts | 318° |
| 2026-04-18 20:53 | 49.70531 | 18.13074 | 820 ft | 9 kts | 316° |
| 2026-04-18 20:53 | 49.70579 | 18.13004 | 821 ft | 10 kts | 316° |
| 2026-04-18 20:53 | 49.70631 | 18.12927 | 823 ft | 10 kts | 316° |
| 2026-04-18 20:54 | 49.70675 | 18.12865 | 827 ft | 8 kts | 315° |
| 2026-04-18 20:54 | 49.70678 | 18.12793 | 827 ft | 0 kts | 225° |
| 2026-04-18 20:54 | 49.70567 | 18.12615 | 827 ft | 67 kts | 226° |
| 2026-04-18 20:55 | 49.70100 | 18.11864 | 923 ft | 114 kts | 221° |
| 2026-04-18 20:55 | 49.69492 | 18.10959 | 1142 ft | 124 kts | 224° |
| 2026-04-18 20:55 | 49.68890 | 18.09977 | 1329 ft | 133 kts | 224° |
| 2026-04-18 20:55 | 49.68221 | 18.08892 | 1501 ft | 144 kts | 225° |
| 2026-04-18 20:56 | 49.67523 | 18.07747 | 1695 ft | 148 kts | 225° |
| 2026-04-18 20:56 | 49.66811 | 18.06598 | 1895 ft | 148 kts | 225° |
| 2026-04-18 20:56 | 49.66095 | 18.05439 | 2098 ft | 149 kts | 226° |
| 2026-04-18 20:56 | 49.65378 | 18.04280 | 2295 ft | 149 kts | 228° |
| 2026-04-18 20:57 | 49.64981 | 18.02852 | 2461 ft | 149 kts | 269° |
| 2026-04-18 20:57 | 49.65299 | 18.01352 | 2637 ft | 150 kts | 307° |
| 2026-04-18 20:57 | 49.66107 | 18.00346 | 2833 ft | 149 kts | 324° |
| 2026-04-18 20:57 | 49.66946 | 17.99414 | 3037 ft | 148 kts | 323° |
| 2026-04-18 20:58 | 49.67782 | 17.98479 | 3237 ft | 148 kts | 323° |
| 2026-04-18 20:58 | 49.68623 | 17.97543 | 3435 ft | 149 kts | 322° |
| 2026-04-18 20:58 | 49.69461 | 17.96602 | 3633 ft | 149 kts | 322° |
| 2026-04-18 20:58 | 49.70301 | 17.95659 | 3829 ft | 149 kts | 321° |
| 2026-04-18 20:59 | 49.71133 | 17.94723 | 4023 ft | 150 kts | 321° |
| 2026-04-18 20:59 | 49.71986 | 17.93769 | 4223 ft | 152 kts | 321° |
| 2026-04-18 20:59 | 49.72844 | 17.92805 | 4421 ft | 153 kts | 321° |
| 2026-04-18 20:59 | 49.73710 | 17.91831 | 4617 ft | 154 kts | 322° |
| 2026-04-18 21:00 | 49.74584 | 17.90850 | 4817 ft | 156 kts | 322° |
| 2026-04-18 21:00 | 49.75462 | 17.89862 | 5017 ft | 156 kts | 323° |
| 2026-04-18 21:00 | 49.76344 | 17.88872 | 5216 ft | 157 kts | 323° |
| 2026-04-18 21:00 | 49.77227 | 17.87887 | 5403 ft | 156 kts | 327° |
| 2026-04-18 21:01 | 49.78240 | 17.87368 | 5583 ft | 155 kts | 357° |
| 2026-04-18 21:01 | 49.79286 | 17.87609 | 5773 ft | 152 kts | 19° |
| 2026-04-18 21:01 | 49.80286 | 17.88125 | 5976 ft | 150 kts | 17° |
| 2026-04-18 21:01 | 49.81280 | 17.88612 | 6173 ft | 149 kts | 18° |
| 2026-04-18 21:02 | 49.82267 | 17.89105 | 6366 ft | 149 kts | 18° |
| 2026-04-18 21:02 | 49.84226 | 17.90085 | 6758 ft | 150 kts | 19° |
| 2026-04-18 21:02 | 49.85223 | 17.90581 | 6953 ft | 151 kts | 19° |
| 2026-04-18 21:03 | 49.86231 | 17.91087 | 7140 ft | 153 kts | 19° |
| 2026-04-18 21:03 | 49.87250 | 17.91596 | 7346 ft | 154 kts | 18° |
| 2026-04-18 21:03 | 49.88279 | 17.92111 | 7543 ft | 156 kts | 17° |
| 2026-04-18 21:03 | 49.89317 | 17.92633 | 7744 ft | 157 kts | 16° |
| 2026-04-18 21:04 | 49.90365 | 17.93157 | 7941 ft | 159 kts | 15° |
| 2026-04-18 21:04 | 49.91442 | 17.93693 | 7998 ft | 168 kts | 15° |
| 2026-04-18 21:04 | 49.92572 | 17.94265 | 8008 ft | 173 kts | 15° |
| 2026-04-18 21:04 | 49.93718 | 17.94845 | 8008 ft | 177 kts | 15° |
| 2026-04-18 21:05 | 49.94916 | 17.95451 | 8006 ft | 180 kts | 15° |
| 2026-04-18 21:05 | 49.96099 | 17.96046 | 7977 ft | 182 kts | 16° |
| 2026-04-18 21:05 | 49.97304 | 17.96658 | 7980 ft | 182 kts | 16° |